JYH6991 WMKK-VTSP
Flight info
| Callsign | JYH6991 |
|---|---|
| Flight time | 1h 9m |
| Altitude | 36000 |
| Route | ATIM1B ATIMU Y506 TEPUS A457 VPG Y351 DUBAX R325 URGAD URGA1D |
| Aircraft | B738/M-SABDE1FGHIJ1RWXYZ/LB1 |
Departure
| Time | 2026-05-05 13:33 |
|---|---|
| Airport | Kuala Lumpur International Airport (WMKK) |
Arrival
| Time | 2026-05-05 14:43 |
|---|---|
| Airport | Phuket International Airport (VTSP) |
| Time | Latitude | Longitude | Altitude | Speed | Heading |
|---|---|---|---|---|---|
| 2026-05-05 13:16 | 2.75443 | 101.70693 | 66 ft | 0 kts | 147° |
| 2026-05-05 13:25 | 2.75448 | 101.70690 | 60 ft | 4 kts | 146° |
| 2026-05-05 13:25 | 2.75467 | 101.70673 | 63 ft | 4 kts | 112° |
| 2026-05-05 13:25 | 2.75468 | 101.70654 | 57 ft | 1 kts | 58° |
| 2026-05-05 13:25 | 2.75468 | 101.70653 | 57 ft | 1 kts | 58° |
| 2026-05-05 13:28 | 2.75481 | 101.70675 | 61 ft | 10 kts | 58° |
| 2026-05-05 13:28 | 2.75541 | 101.70764 | 66 ft | 10 kts | 56° |
| 2026-05-05 13:28 | 2.75555 | 101.70784 | 59 ft | 3 kts | 56° |
| 2026-05-05 13:29 | 2.75571 | 101.70808 | 66 ft | 6 kts | 56° |
| 2026-05-05 13:29 | 2.75615 | 101.70875 | 59 ft | 17 kts | 57° |
| 2026-05-05 13:29 | 2.75696 | 101.71000 | 60 ft | 24 kts | 59° |
| 2026-05-05 13:29 | 2.75628 | 101.71123 | 62 ft | 23 kts | 147° |
| 2026-05-05 13:30 | 2.75493 | 101.71138 | 63 ft | 22 kts | 231° |
| 2026-05-05 13:30 | 2.75408 | 101.71011 | 62 ft | 23 kts | 237° |
| 2026-05-05 13:30 | 2.75304 | 101.70854 | 59 ft | 32 kts | 236° |
| 2026-05-05 13:30 | 2.75186 | 101.70724 | 61 ft | 22 kts | 179° |
| 2026-05-05 13:31 | 2.75047 | 101.70768 | 65 ft | 24 kts | 199° |
| 2026-05-05 13:31 | 2.74921 | 101.70606 | 67 ft | 36 kts | 235° |
| 2026-05-05 13:31 | 2.74764 | 101.70372 | 62 ft | 45 kts | 236° |
| 2026-05-05 13:31 | 2.74588 | 101.70107 | 60 ft | 45 kts | 237° |
| 2026-05-05 13:32 | 2.74452 | 101.69907 | 66 ft | 6 kts | 232° |
| 2026-05-05 13:32 | 2.74426 | 101.69872 | 64 ft | 7 kts | 236° |
| 2026-05-05 13:32 | 2.74376 | 101.69805 | 62 ft | 17 kts | 223° |
| 2026-05-05 13:32 | 2.74268 | 101.69832 | 65 ft | 17 kts | 149° |
| 2026-05-05 13:33 | 2.74124 | 101.69930 | 60 ft | 51 kts | 146° |
| 2026-05-05 13:33 | 2.73563 | 101.70307 | 64 ft | 140 kts | 146° |
| 2026-05-05 13:33 | 2.72622 | 101.70943 | 554 ft | 170 kts | 146° |
| 2026-05-05 13:33 | 2.71672 | 101.71571 | 1691 ft | 165 kts | 147° |
| 2026-05-05 13:34 | 2.70696 | 101.72215 | 2535 ft | 170 kts | 147° |
| 2026-05-05 13:34 | 2.69714 | 101.72854 | 3014 ft | 170 kts | 147° |
| 2026-05-05 13:34 | 2.68664 | 101.73538 | 3464 ft | 192 kts | 146° |
| 2026-05-05 13:34 | 2.67453 | 101.74346 | 3696 ft | 225 kts | 145° |
| 2026-05-05 13:35 | 2.66089 | 101.75281 | 3930 ft | 252 kts | 145° |
| 2026-05-05 13:35 | 2.64577 | 101.76316 | 4433 ft | 270 kts | 145° |
| 2026-05-05 13:35 | 2.63005 | 101.77382 | 5261 ft | 275 kts | 145° |
| 2026-05-05 13:35 | 2.61412 | 101.78455 | 6149 ft | 279 kts | 145° |
| 2026-05-05 13:36 | 2.59821 | 101.79522 | 6976 ft | 281 kts | 145° |
| 2026-05-05 13:36 | 2.58193 | 101.80613 | 7791 ft | 285 kts | 146° |
| 2026-05-05 13:36 | 2.56503 | 101.81683 | 8607 ft | 290 kts | 154° |
| 2026-05-05 13:36 | 2.54537 | 101.82120 | 9394 ft | 295 kts | 181° |
| 2026-05-05 13:37 | 2.52548 | 101.81633 | 10158 ft | 299 kts | 208° |
| 2026-05-05 13:37 | 2.50892 | 101.80321 | 10557 ft | 318 kts | 231° |
| 2026-05-05 13:37 | 2.49129 | 101.77782 | 10806 ft | 349 kts | 237° |
| 2026-05-05 13:37 | 2.48366 | 101.76325 | 10887 ft | 364 kts | 250° |
| 2026-05-05 13:38 | 2.48021 | 101.73773 | 11024 ft | 383 kts | 275° |
| 2026-05-05 13:38 | 2.48763 | 101.71174 | 11147 ft | 400 kts | 299° |
| 2026-05-05 13:38 | 2.50576 | 101.69098 | 11771 ft | 397 kts | 323° |
| 2026-05-05 13:38 | 2.52852 | 101.67613 | 12770 ft | 388 kts | 328° |
| 2026-05-05 13:39 | 2.55092 | 101.66194 | 13851 ft | 377 kts | 328° |
| 2026-05-05 13:39 | 2.57267 | 101.64788 | 14898 ft | 367 kts | 328° |
| 2026-05-05 13:39 | 2.59372 | 101.63398 | 15961 ft | 359 kts | 327° |
| 2026-05-05 13:39 | 2.61416 | 101.62035 | 17058 ft | 350 kts | 328° |
| 2026-05-05 13:40 | 2.63416 | 101.60695 | 18094 ft | 345 kts | 327° |
| 2026-05-05 13:40 | 2.65229 | 101.59117 | 18740 ft | 351 kts | 314° |
| 2026-05-05 13:40 | 2.66849 | 101.57275 | 19341 ft | 356 kts | 311° |
| 2026-05-05 13:40 | 2.68452 | 101.55376 | 19950 ft | 360 kts | 311° |
| 2026-05-05 13:41 | 2.70071 | 101.53457 | 20576 ft | 363 kts | 311° |
| 2026-05-05 13:41 | 2.71720 | 101.51528 | 21200 ft | 367 kts | 312° |
| 2026-05-05 13:41 | 2.73393 | 101.49593 | 21812 ft | 371 kts | 312° |
| 2026-05-05 13:41 | 2.75092 | 101.47643 | 22413 ft | 375 kts | 312° |
| 2026-05-05 13:42 | 2.76812 | 101.45676 | 23011 ft | 378 kts | 312° |
| 2026-05-05 13:42 | 2.78554 | 101.43687 | 23571 ft | 382 kts | 312° |
| 2026-05-05 13:42 | 2.80308 | 101.41685 | 24065 ft | 385 kts | 312° |
| 2026-05-05 13:42 | 2.82077 | 101.39668 | 24596 ft | 387 kts | 312° |
| 2026-05-05 13:43 | 2.83851 | 101.37643 | 25101 ft | 390 kts | 312° |
| 2026-05-05 13:43 | 2.85532 | 101.35518 | 25586 ft | 393 kts | 304° |
| 2026-05-05 13:43 | 2.86986 | 101.33200 | 26073 ft | 396 kts | 301° |
| 2026-05-05 13:43 | 2.88364 | 101.30811 | 26572 ft | 399 kts | 300° |
| 2026-05-05 13:44 | 2.89746 | 101.28397 | 27048 ft | 402 kts | 301° |
| 2026-05-05 13:44 | 2.91157 | 101.25975 | 27511 ft | 405 kts | 301° |
| 2026-05-05 13:44 | 2.92596 | 101.23551 | 27955 ft | 408 kts | 301° |
| 2026-05-05 13:44 | 2.94064 | 101.21111 | 28428 ft | 410 kts | 302° |
| 2026-05-05 13:45 | 2.95541 | 101.18670 | 28885 ft | 413 kts | 302° |
| 2026-05-05 13:45 | 2.97034 | 101.16206 | 29334 ft | 416 kts | 302° |
| 2026-05-05 13:45 | 2.98531 | 101.13734 | 29774 ft | 419 kts | 302° |
| 2026-05-05 13:45 | 3.00205 | 101.11355 | 30132 ft | 421 kts | 315° |
| 2026-05-05 13:46 | 3.02512 | 101.09584 | 30546 ft | 419 kts | 330° |
| 2026-05-05 13:46 | 3.05044 | 101.08165 | 31015 ft | 418 kts | 332° |
| 2026-05-05 13:46 | 3.07598 | 101.06782 | 31406 ft | 419 kts | 332° |
| 2026-05-05 13:46 | 3.10162 | 101.05388 | 31762 ft | 422 kts | 332° |
| 2026-05-05 13:47 | 3.12735 | 101.03968 | 32126 ft | 423 kts | 331° |
| 2026-05-05 13:47 | 3.15301 | 101.02533 | 32503 ft | 425 kts | 331° |
| 2026-05-05 13:47 | 3.17868 | 101.01087 | 32872 ft | 426 kts | 331° |
| 2026-05-05 13:47 | 3.20444 | 100.99635 | 33231 ft | 427 kts | 330° |
| 2026-05-05 13:48 | 3.23108 | 100.98336 | 33538 ft | 429 kts | 343° |
| 2026-05-05 13:48 | 3.26042 | 100.97858 | 33843 ft | 430 kts | 358° |
| 2026-05-05 13:48 | 3.29031 | 100.97846 | 34166 ft | 431 kts | 0° |
| 2026-05-05 13:48 | 3.32031 | 100.97895 | 34420 ft | 433 kts | 1° |
| 2026-05-05 13:49 | 3.35047 | 100.97953 | 34647 ft | 436 kts | 1° |
| 2026-05-05 13:49 | 3.38080 | 100.97998 | 34889 ft | 438 kts | 0° |
| 2026-05-05 13:49 | 3.41129 | 100.98028 | 35114 ft | 440 kts | 0° |
| 2026-05-05 13:49 | 3.44193 | 100.98046 | 35344 ft | 442 kts | 360° |
| 2026-05-05 13:50 | 3.47274 | 100.98058 | 35603 ft | 444 kts | 360° |
| 2026-05-05 13:50 | 3.50361 | 100.98066 | 35839 ft | 445 kts | 360° |
| 2026-05-05 13:50 | 3.56614 | 100.98084 | 35887 ft | 456 kts | 0° |
| 2026-05-05 13:51 | 3.63015 | 100.98104 | 35897 ft | 466 kts | 0° |
| 2026-05-05 13:51 | 3.69429 | 100.97272 | 35899 ft | 472 kts | 337° |
| 2026-05-05 13:52 | 3.75443 | 100.94565 | 35897 ft | 477 kts | 335° |
| 2026-05-05 13:52 | 3.81482 | 100.91775 | 35882 ft | 481 kts | 336° |
| 2026-05-05 13:53 | 3.87574 | 100.89029 | 35888 ft | 482 kts | 336° |
| 2026-05-05 13:53 | 3.93698 | 100.86303 | 35876 ft | 483 kts | 336° |
| 2026-05-05 13:54 | 3.99823 | 100.83581 | 35876 ft | 482 kts | 336° |
| 2026-05-05 13:54 | 4.05936 | 100.80860 | 35879 ft | 481 kts | 336° |
| 2026-05-05 13:55 | 4.12039 | 100.78140 | 35886 ft | 480 kts | 336° |
| 2026-05-05 13:55 | 4.18128 | 100.75427 | 35883 ft | 479 kts | 336° |
| 2026-05-05 13:56 | 4.24204 | 100.72706 | 35828 ft | 479 kts | 336° |
| 2026-05-05 13:56 | 4.30261 | 100.69986 | 35829 ft | 478 kts | 336° |
| 2026-05-05 13:57 | 4.36328 | 100.67261 | 35840 ft | 478 kts | 336° |
| 2026-05-05 13:57 | 4.42379 | 100.64544 | 35855 ft | 478 kts | 336° |
| 2026-05-05 13:58 | 4.48433 | 100.61826 | 35871 ft | 478 kts | 336° |
| 2026-05-05 13:58 | 4.54493 | 100.59105 | 35878 ft | 479 kts | 336° |
| 2026-05-05 13:59 | 4.63599 | 100.55015 | 35887 ft | 478 kts | 336° |
| 2026-05-05 14:00 | 4.72659 | 100.50944 | 35890 ft | 475 kts | 336° |
| 2026-05-05 14:00 | 4.78675 | 100.48241 | 35894 ft | 474 kts | 336° |
| 2026-05-05 14:01 | 4.84672 | 100.45545 | 35891 ft | 473 kts | 336° |
| 2026-05-05 14:01 | 4.90672 | 100.42848 | 35882 ft | 474 kts | 336° |
| 2026-05-05 14:02 | 4.96686 | 100.40143 | 35889 ft | 476 kts | 336° |
| 2026-05-05 14:02 | 5.02720 | 100.37430 | 35884 ft | 477 kts | 336° |
| 2026-05-05 14:03 | 5.08771 | 100.34707 | 35882 ft | 478 kts | 336° |
| 2026-05-05 14:03 | 5.14833 | 100.31979 | 35878 ft | 478 kts | 336° |
| 2026-05-05 14:04 | 5.20898 | 100.29249 | 35830 ft | 479 kts | 336° |
| 2026-05-05 14:04 | 5.26996 | 100.26592 | 35823 ft | 479 kts | 342° |
| 2026-05-05 14:05 | 5.33491 | 100.25307 | 35839 ft | 478 kts | 354° |
| 2026-05-05 14:05 | 5.40104 | 100.24646 | 35832 ft | 479 kts | 355° |
| 2026-05-05 14:06 | 5.46719 | 100.23952 | 35847 ft | 479 kts | 354° |
| 2026-05-05 14:06 | 5.53337 | 100.23208 | 35855 ft | 480 kts | 354° |
| 2026-05-05 14:07 | 5.59957 | 100.22453 | 35867 ft | 480 kts | 354° |
| 2026-05-05 14:07 | 5.66569 | 100.21702 | 35879 ft | 479 kts | 354° |
| 2026-05-05 14:08 | 5.73170 | 100.20952 | 35874 ft | 478 kts | 354° |
| 2026-05-05 14:08 | 5.79758 | 100.20179 | 35877 ft | 477 kts | 354° |
| 2026-05-05 14:09 | 5.86336 | 100.19399 | 35881 ft | 477 kts | 354° |
| 2026-05-05 14:09 | 5.92903 | 100.18622 | 35882 ft | 476 kts | 354° |
| 2026-05-05 14:10 | 5.99467 | 100.17848 | 35886 ft | 476 kts | 354° |
| 2026-05-05 14:10 | 6.06028 | 100.17075 | 35885 ft | 476 kts | 354° |
| 2026-05-05 14:11 | 6.12590 | 100.16301 | 35885 ft | 476 kts | 354° |
| 2026-05-05 14:11 | 6.19151 | 100.15526 | 35885 ft | 476 kts | 354° |
| 2026-05-05 14:12 | 6.25715 | 100.14751 | 35887 ft | 476 kts | 354° |
| 2026-05-05 14:12 | 6.32278 | 100.13976 | 35885 ft | 476 kts | 354° |
| 2026-05-05 14:13 | 6.38838 | 100.13170 | 35882 ft | 476 kts | 350° |
| 2026-05-05 14:13 | 6.42000 | 100.12205 | 35880 ft | 478 kts | 336° |
| 2026-05-05 14:13 | 6.44890 | 100.10567 | 35886 ft | 479 kts | 325° |
| 2026-05-05 14:14 | 6.47382 | 100.08353 | 35882 ft | 481 kts | 314° |
| 2026-05-05 14:14 | 6.49618 | 100.05865 | 35889 ft | 481 kts | 313° |
| 2026-05-05 14:14 | 6.54042 | 100.00835 | 35878 ft | 481 kts | 313° |
| 2026-05-05 14:15 | 6.58496 | 99.95834 | 35875 ft | 481 kts | 313° |
| 2026-05-05 14:15 | 6.62983 | 99.90863 | 35879 ft | 481 kts | 313° |
| 2026-05-05 14:16 | 6.67481 | 99.85901 | 35883 ft | 481 kts | 313° |
| 2026-05-05 14:16 | 6.71978 | 99.80935 | 35879 ft | 481 kts | 313° |
| 2026-05-05 14:17 | 6.76472 | 99.75968 | 35884 ft | 481 kts | 314° |
| 2026-05-05 14:17 | 6.80966 | 99.70998 | 35878 ft | 481 kts | 314° |
| 2026-05-05 14:18 | 6.85457 | 99.66030 | 35878 ft | 481 kts | 314° |
| 2026-05-05 14:18 | 6.89944 | 99.61064 | 35880 ft | 480 kts | 314° |
| 2026-05-05 14:19 | 6.94435 | 99.56094 | 35880 ft | 480 kts | 314° |
| 2026-05-05 14:19 | 6.98920 | 99.51127 | 35877 ft | 480 kts | 314° |
| 2026-05-05 14:20 | 7.01165 | 99.48648 | 35687 ft | 482 kts | 314° |
| 2026-05-05 14:20 | 7.03441 | 99.46191 | 35096 ft | 478 kts | 315° |
| 2026-05-05 14:20 | 7.05738 | 99.43749 | 34216 ft | 482 kts | 315° |
| 2026-05-05 14:20 | 7.08043 | 99.41313 | 33319 ft | 484 kts | 315° |
| 2026-05-05 14:21 | 7.10359 | 99.38865 | 32460 ft | 485 kts | 315° |
| 2026-05-05 14:21 | 7.12680 | 99.36404 | 31576 ft | 487 kts | 314° |
| 2026-05-05 14:21 | 7.15015 | 99.33922 | 30656 ft | 489 kts | 314° |
| 2026-05-05 14:21 | 7.17352 | 99.31433 | 29653 ft | 493 kts | 314° |
| 2026-05-05 14:22 | 7.20495 | 99.28080 | 28149 ft | 496 kts | 314° |
| 2026-05-05 14:22 | 7.22072 | 99.26398 | 27414 ft | 496 kts | 314° |
| 2026-05-05 14:22 | 7.24438 | 99.23871 | 26254 ft | 499 kts | 314° |
| 2026-05-05 14:22 | 7.26813 | 99.21335 | 25351 ft | 496 kts | 314° |
| 2026-05-05 14:23 | 7.29167 | 99.18822 | 24477 ft | 492 kts | 314° |
| 2026-05-05 14:23 | 7.31501 | 99.16329 | 23637 ft | 488 kts | 314° |
| 2026-05-05 14:23 | 7.33812 | 99.13860 | 22676 ft | 484 kts | 314° |
| 2026-05-05 14:23 | 7.36105 | 99.11411 | 21798 ft | 477 kts | 314° |
| 2026-05-05 14:24 | 7.38359 | 99.09003 | 20979 ft | 471 kts | 314° |
| 2026-05-05 14:24 | 7.40591 | 99.06619 | 20143 ft | 465 kts | 314° |
| 2026-05-05 14:24 | 7.42795 | 99.04264 | 19330 ft | 460 kts | 314° |
| 2026-05-05 14:24 | 7.44976 | 99.01933 | 18520 ft | 456 kts | 314° |
| 2026-05-05 14:25 | 7.47135 | 98.99626 | 17646 ft | 452 kts | 314° |
| 2026-05-05 14:25 | 7.49269 | 98.97343 | 16821 ft | 445 kts | 314° |
| 2026-05-05 14:25 | 7.51379 | 98.95088 | 16034 ft | 439 kts | 314° |
| 2026-05-05 14:25 | 7.53463 | 98.92860 | 15179 ft | 436 kts | 314° |
| 2026-05-05 14:26 | 7.55526 | 98.90652 | 14401 ft | 432 kts | 314° |
| 2026-05-05 14:26 | 7.57575 | 98.88461 | 13610 ft | 428 kts | 314° |
| 2026-05-05 14:26 | 7.59597 | 98.86297 | 12829 ft | 422 kts | 314° |
| 2026-05-05 14:26 | 7.61600 | 98.84154 | 12054 ft | 418 kts | 314° |
| 2026-05-05 14:27 | 7.63583 | 98.82032 | 11203 ft | 415 kts | 314° |
| 2026-05-05 14:27 | 7.65534 | 98.79943 | 10766 ft | 403 kts | 314° |
| 2026-05-05 14:27 | 7.67410 | 98.77933 | 10617 ft | 384 kts | 315° |
| 2026-05-05 14:27 | 7.69198 | 98.76018 | 10497 ft | 367 kts | 315° |
| 2026-05-05 14:28 | 7.70905 | 98.74190 | 10389 ft | 352 kts | 315° |
| 2026-05-05 14:28 | 7.72542 | 98.72433 | 10293 ft | 337 kts | 315° |
| 2026-05-05 14:28 | 7.74111 | 98.70739 | 10212 ft | 324 kts | 315° |
| 2026-05-05 14:28 | 7.75616 | 98.69112 | 10135 ft | 312 kts | 315° |
| 2026-05-05 14:29 | 7.77077 | 98.67555 | 10035 ft | 301 kts | 318° |
| 2026-05-05 14:29 | 7.78710 | 98.66280 | 9792 ft | 295 kts | 329° |
| 2026-05-05 14:29 | 7.80425 | 98.65185 | 9556 ft | 290 kts | 330° |
| 2026-05-05 14:29 | 7.82133 | 98.64119 | 9317 ft | 288 kts | 330° |
| 2026-05-05 14:30 | 7.83826 | 98.63048 | 9092 ft | 288 kts | 330° |
| 2026-05-05 14:30 | 7.85511 | 98.61959 | 8860 ft | 288 kts | 329° |
| 2026-05-05 14:30 | 7.87191 | 98.60860 | 8640 ft | 288 kts | 329° |
| 2026-05-05 14:30 | 7.88870 | 98.59754 | 8414 ft | 288 kts | 329° |
| 2026-05-05 14:31 | 7.90537 | 98.58654 | 8175 ft | 285 kts | 329° |
| 2026-05-05 14:31 | 7.92277 | 98.57776 | 7939 ft | 277 kts | 351° |
| 2026-05-05 14:31 | 7.94123 | 98.57571 | 7973 ft | 262 kts | 358° |
| 2026-05-05 14:31 | 7.95927 | 98.57412 | 7970 ft | 259 kts | 358° |
| 2026-05-05 14:32 | 7.97720 | 98.57249 | 7971 ft | 261 kts | 358° |
| 2026-05-05 14:32 | 7.99541 | 98.57082 | 7975 ft | 266 kts | 357° |
| 2026-05-05 14:32 | 8.01393 | 98.56909 | 7976 ft | 268 kts | 357° |
| 2026-05-05 14:32 | 8.03240 | 98.56735 | 7974 ft | 266 kts | 357° |
| 2026-05-05 14:33 | 8.05076 | 98.56562 | 7961 ft | 264 kts | 357° |
| 2026-05-05 14:33 | 8.06896 | 98.56390 | 7968 ft | 263 kts | 357° |
| 2026-05-05 14:33 | 8.08701 | 98.56220 | 7954 ft | 257 kts | 358° |
| 2026-05-05 14:33 | 8.10440 | 98.56055 | 7925 ft | 246 kts | 358° |
| 2026-05-05 14:34 | 8.12094 | 98.55898 | 7932 ft | 232 kts | 358° |
| 2026-05-05 14:34 | 8.13639 | 98.55751 | 7920 ft | 215 kts | 358° |
| 2026-05-05 14:34 | 8.15086 | 98.55602 | 7909 ft | 208 kts | 353° |
| 2026-05-05 14:34 | 8.16382 | 98.54969 | 7891 ft | 213 kts | 317° |
| 2026-05-05 14:35 | 8.17097 | 98.53662 | 7898 ft | 219 kts | 280° |
| 2026-05-05 14:35 | 8.16956 | 98.52153 | 7904 ft | 219 kts | 244° |
| 2026-05-05 14:35 | 8.16194 | 98.50839 | 7923 ft | 217 kts | 234° |
| 2026-05-05 14:35 | 8.15314 | 98.49620 | 7813 ft | 213 kts | 229° |
| 2026-05-05 14:36 | 8.14391 | 98.48460 | 7547 ft | 210 kts | 229° |
| 2026-05-05 14:36 | 8.13514 | 98.47355 | 7415 ft | 197 kts | 229° |
| 2026-05-05 14:36 | 8.12726 | 98.46262 | 7145 ft | 190 kts | 246° |
| 2026-05-05 14:36 | 8.12678 | 98.45002 | 6911 ft | 178 kts | 292° |
| 2026-05-05 14:37 | 8.13750 | 98.43851 | 6634 ft | 171 kts | 330° |
| 2026-05-05 14:37 | 8.14427 | 98.43419 | 6477 ft | 173 kts | 335° |
| 2026-05-05 14:37 | 8.15568 | 98.43186 | 6217 ft | 167 kts | 16° |
| 2026-05-05 14:37 | 8.16490 | 98.43792 | 6009 ft | 158 kts | 60° |
| 2026-05-05 14:38 | 8.16736 | 98.44829 | 5782 ft | 154 kts | 94° |
| 2026-05-05 14:38 | 8.16256 | 98.45764 | 5516 ft | 156 kts | 140° |
| 2026-05-05 14:38 | 8.15289 | 98.46249 | 5310 ft | 156 kts | 154° |
| 2026-05-05 14:38 | 8.14239 | 98.46483 | 4943 ft | 161 kts | 183° |
| 2026-05-05 14:39 | 8.13173 | 98.46119 | 4478 ft | 162 kts | 200° |
| 2026-05-05 14:39 | 8.12280 | 98.45442 | 3965 ft | 166 kts | 237° |
| 2026-05-05 14:39 | 8.12002 | 98.44339 | 3437 ft | 167 kts | 273° |
| 2026-05-05 14:39 | 8.12106 | 98.43137 | 2728 ft | 176 kts | 276° |
| 2026-05-05 14:40 | 8.12210 | 98.41895 | 2114 ft | 177 kts | 275° |
| 2026-05-05 14:40 | 8.12259 | 98.40742 | 1843 ft | 159 kts | 265° |
| 2026-05-05 14:40 | 8.12060 | 98.39639 | 1358 ft | 157 kts | 266° |
| 2026-05-05 14:40 | 8.11969 | 98.38591 | 1149 ft | 146 kts | 267° |
| 2026-05-05 14:41 | 8.11878 | 98.37586 | 987 ft | 144 kts | 266° |
| 2026-05-05 14:41 | 8.11784 | 98.36580 | 831 ft | 145 kts | 266° |
| 2026-05-05 14:41 | 8.11688 | 98.35563 | 624 ft | 145 kts | 266° |
| 2026-05-05 14:41 | 8.11582 | 98.34571 | 412 ft | 140 kts | 265° |
| 2026-05-05 14:42 | 8.11497 | 98.33594 | 244 ft | 140 kts | 266° |
| 2026-05-05 14:42 | 8.11408 | 98.32614 | 79 ft | 137 kts | 265° |
| 2026-05-05 14:42 | 8.11309 | 98.31557 | 53 ft | 91 kts | 265° |
| 2026-05-05 14:42 | 8.11275 | 98.31186 | 41 ft | 68 kts | 264° |
| 2026-05-05 14:43 | 8.11241 | 98.30828 | 33 ft | 34 kts | 264° |
| 2026-05-05 14:43 | 8.11225 | 98.30648 | 29 ft | 25 kts | 264° |
| 2026-05-05 14:43 | 8.11205 | 98.30546 | 28 ft | 7 kts | 238° |
| 2026-05-05 14:43 | 8.11166 | 98.30524 | 28 ft | 7 kts | 194° |
| 2026-05-05 14:44 | 8.11121 | 98.30513 | 29 ft | 7 kts | 194° |
| 2026-05-05 14:44 | 8.11075 | 98.30510 | 29 ft | 7 kts | 166° |
| 2026-05-05 14:44 | 8.11022 | 98.30492 | 29 ft | 10 kts | 206° |
| 2026-05-05 14:44 | 8.10923 | 98.30460 | 29 ft | 17 kts | 195° |
| 2026-05-05 14:45 | 8.10872 | 98.30452 | 29 ft | 2 kts | 163° |
| 2026-05-05 14:45 | 8.10861 | 98.30466 | 29 ft | 7 kts | 112° |
| 2026-05-05 14:45 | 8.10842 | 98.30530 | 29 ft | 2 kts | 103° |
| 2026-05-05 14:45 | 8.10841 | 98.30534 | 29 ft | 0 kts | 104° |